| Pilot: | GLD1043 Marcio M. | Aircraft: | Twin star | Distance: | 146NM |
| From: | SBCH | To: | SBCA | Duration: | 1.19 |
| Validation: | Valid | Tipo: | Charter | Tail Number: | PT-GLD |
| ZFW: | 3954 | Block Fuel/Init FOB | 70flight_details.php/33 | Flight Fuel | 70 |
| Passengers: | 3 | Cargo: | 50 | Alternate: | SBFI |
| Departure Time: | 1054 | Cruise Speed: | 0170 | Flight Level: | 7500 |
| Flight Type: | VFR | Aircraft Type: | DA42 | Weight Unit: | Kg |
| Date: | 03/05/2026 | Comments: | GOLD ACARS | Network: | VATSIM |
| Crash: | No | Validator Comments: | Rating | 90 |
| ROUTE | DCT 2643S5243W 2621S5251W 2544S533W 2512S538W 2457S5326W DCT |
| REMARKS | OPR/GOLD VIRTUAL AIRLINES PER/A RMK/FROM SBCH RMK/PIC GLD1043 |
| Crash | OK | Beacon Lights off with engine on | OK | Speed above 250KIAS below 10.000ft | OK |
| Landing Lights OFF below 10.000ft | OK | Landing Lights ON above 10.000ft | OK | Stall | OK |
| Overspeed | OK | Pause | OK | Refuel | OK |
| Slew | OK | Taxi Lights OFF during taxi | OK | Land Lights OFF during take off | OK |
| Landing Lights OFF during landing | OK | Landed in not planned airfield | OK | Taxi speed above 25 kt | OK |
| Incorrect QNH during take off | OK | Incorrect QNH during landing | Fault |
| Wind: | 81º/12 kt | Heading: | 128 |
| VS: | -99 ft/min | IAS: | 63 kt |
| Gforce: | 1.0928 G | Bank: | -0.63 |
| Pitch | 4.41 | Flaps | 100 |
| Nav Lights | ON | Landing Lights | ON |
| Beacon Lights | ON | Strobe Lights | ON |
| DATE | EVENT | IAS | ALTITUDE |
|---|---|---|---|
| 2026-05-03 10:54:26 | GOLD ACARS VERSION 3.3.7.0 | 0 | 0 |
| 2026-05-03 10:54:26 | BOARDING | 11 | 2120 |
| 2026-05-03 10:54:26 | LITTLENAVMAP ON | 11 | 2120 |
| 2026-05-03 10:55:47 | STB LIGHTS ON | 10 | 2120 |
| 2026-05-03 10:55:50 | BCN LIGHTS ON | 7 | 2120 |
| 2026-05-03 10:56:27 | NAV LIGHTS ON | 7 | 2120 |
| 2026-05-03 10:56:31 | STARTING ENGINE 2 | 6 | 2120 |
| 2026-05-03 10:56:48 | STARTING ENGINE 1 | 11 | 2120 |
| 2026-05-03 11:03:34 | TAXI LIGHTS ON | 10 | 2127 |
| 2026-05-03 11:03:43 | TAXI LIGHTS OFF | 6 | 2127 |
| 2026-05-03 11:03:44 | TAXI LIGHTS ON | 6 | 2127 |
| 2026-05-03 11:03:51 | TAXI TO THE RWY | 9 | 2127 |
| 2026-05-03 11:05:12 | LND LIGHTS ON | 0 | 2124 |
| 2026-05-03 11:06:04 | GEAR UP | 79 | 2137 |
| 2026-05-03 11:06:06 | CLIMBING | 80 | 2147 |
| 2026-05-03 11:06:31 | AP ENGAGED | 94 | 2624 |
| 2026-05-03 11:10:23 | CRUISE | 111 | 7495 |
| 2026-05-03 11:52:30 | DESCEND | 148 | 7492 |
| 2026-05-03 11:59:07 | GEAR DOWN | 136 | 3498 |
| 2026-05-03 11:59:21 | FLAP 50% | 115 | 3490 |
| 2026-05-03 11:59:23 | AP DISENGAGED | 112 | 3492 |
| 2026-05-03 12:00:33 | FLAP 100% | 94 | 3135 |
| 2026-05-03 12:02:10 | LANDED AIRPORT [SBCA] | 64 | 2584 |
| 2026-05-03 12:02:11 | LANDED - VS: -99 ft/min | 63 | 2583 |
| 2026-05-03 12:02:11 | LANDING WITH INCORRECT QNH - SET:1022 LOCAL: 1018 | 63 | 2583 |
| 2026-05-03 12:02:21 | TAXI TO THE GATE | 29 | 2576 |
| 2026-05-03 12:02:24 | FLAP 50% | 23 | 2574 |
| 2026-05-03 12:02:25 | FLAP 0% | 20 | 2573 |
| 2026-05-03 12:03:17 | LND LIGHTS OFF | 1 | 2576 |
| 2026-05-03 12:04:53 | AT THE GATE | 0 | 2566 |
| 2026-05-03 12:04:57 | TAXI LIGHTS OFF | 0 | 2566 |
| 2026-05-03 12:05:27 | NAV LIGHTS OFF | 0 | 2566 |
| 2026-05-03 12:05:32 | STOPPING ENGINE 2 | 0 | 2566 |
| 2026-05-03 12:05:33 | STOPPING ENGINE 1 | 0 | 2566 |
| 2026-05-03 12:05:38 | STB LIGHTS OFF | 0 | 2566 |
| 2026-05-03 12:05:38 | BCN LIGHTS OFF | 0 | 2566 |
| 2026-05-03 12:05:38 | FLIGHT FINISHED | 0 | 2566 |
| DATE | IAS | GS | ALTITUDE | FUEL USED | OAT | Flight Phase |
|---|---|---|---|---|---|---|
| 2026-05-03 10:56:27 | 8 | 0 | 2120 | 0 | 14 | BOARDING |
| 2026-05-03 10:57:27 | 11 | 0 | 2120 | 0 | 14 | BOARDING |
| 2026-05-03 10:58:27 | 10 | 0 | 2120 | 0 | 14 | BOARDING |
| 2026-05-03 10:59:27 | 12 | 0 | 2127 | 0 | 14 | BOARDING |
| 2026-05-03 11:00:27 | 10 | 0 | 2127 | 0 | 14 | BOARDING |
| 2026-05-03 11:01:27 | 8 | 0 | 2127 | 0 | 14 | BOARDING |
| 2026-05-03 11:02:27 | 12 | 0 | 2127 | 0 | 14 | BOARDING |
| 2026-05-03 11:03:27 | 11 | 0 | 2127 | 0 | 14 | BOARDING |
| 2026-05-03 11:04:28 | 0 | 9 | 2126 | 0 | 14 | BOARDING |
| 2026-05-03 11:05:28 | 3 | 6 | 2125 | 0 | 14 | TAXI TO THE RWY |
| 2026-05-03 11:06:28 | 94 | 89 | 2562 | 1 | 14 | TAXI TO THE RWY |
| 2026-05-03 11:07:28 | 107 | 105 | 4064 | 1 | 13 | CLIMBING |
| 2026-05-03 11:08:28 | 100 | 119 | 5545 | 2 | 14 | CLIMBING |
| 2026-05-03 11:09:28 | 101 | 113 | 6764 | 3 | 12 | CLIMBING |
| 2026-05-03 11:10:28 | 120 | 130 | 7500 | 4 | 10 | CLIMBING |
| 2026-05-03 11:11:29 | 150 | 168 | 7504 | 5 | 10 | CRUISE |
| 2026-05-03 11:12:29 | 151 | 166 | 7499 | 5 | 10 | CRUISE |
| 2026-05-03 11:13:29 | 151 | 168 | 7494 | 6 | 10 | CRUISE |
| 2026-05-03 11:14:29 | 149 | 166 | 7496 | 7 | 10 | CRUISE |
| 2026-05-03 11:15:29 | 149 | 165 | 7498 | 7 | 10 | CRUISE |
| 2026-05-03 11:16:29 | 150 | 164 | 7496 | 8 | 10 | CRUISE |
| 2026-05-03 11:17:30 | 149 | 164 | 7501 | 8 | 10 | CRUISE |
| 2026-05-03 11:18:30 | 149 | 165 | 7495 | 9 | 10 | CRUISE |
| 2026-05-03 11:19:30 | 150 | 166 | 7494 | 10 | 10 | CRUISE |
| 2026-05-03 11:20:30 | 153 | 168 | 7504 | 10 | 10 | CRUISE |
| 2026-05-03 11:21:30 | 149 | 166 | 7504 | 11 | 10 | CRUISE |
| 2026-05-03 11:22:30 | 152 | 166 | 7509 | 12 | 10 | CRUISE |
| 2026-05-03 11:23:30 | 151 | 166 | 7500 | 12 | 10 | CRUISE |
| 2026-05-03 11:24:31 | 150 | 165 | 7503 | 13 | 10 | CRUISE |
| 2026-05-03 11:25:31 | 150 | 166 | 7505 | 14 | 10 | CRUISE |
| 2026-05-03 11:26:31 | 152 | 165 | 7505 | 14 | 10 | CRUISE |
| 2026-05-03 11:27:31 | 151 | 167 | 7504 | 15 | 10 | CRUISE |
| 2026-05-03 11:28:31 | 154 | 168 | 7506 | 16 | 10 | CRUISE |
| 2026-05-03 11:29:31 | 153 | 167 | 7506 | 16 | 10 | CRUISE |
| 2026-05-03 11:30:32 | 150 | 165 | 7498 | 17 | 10 | CRUISE |
| 2026-05-03 11:31:32 | 148 | 160 | 7499 | 18 | 10 | CRUISE |
| 2026-05-03 11:32:32 | 151 | 163 | 7502 | 18 | 10 | CRUISE |
| 2026-05-03 11:33:32 | 148 | 163 | 7499 | 19 | 10 | CRUISE |
| 2026-05-03 11:34:32 | 151 | 166 | 7501 | 20 | 10 | CRUISE |
| 2026-05-03 11:35:32 | 151 | 166 | 7496 | 20 | 10 | CRUISE |
| 2026-05-03 11:36:32 | 153 | 168 | 7500 | 21 | 10 | CRUISE |
| 2026-05-03 11:37:32 | 150 | 164 | 7504 | 22 | 10 | CRUISE |
| 2026-05-03 11:38:33 | 149 | 164 | 7500 | 22 | 10 | CRUISE |
| 2026-05-03 11:39:33 | 152 | 164 | 7502 | 23 | 10 | CRUISE |
| 2026-05-03 11:40:33 | 151 | 163 | 7500 | 24 | 10 | CRUISE |
| 2026-05-03 11:41:33 | 152 | 165 | 7500 | 24 | 10 | CRUISE |
| 2026-05-03 11:42:33 | 151 | 162 | 7503 | 25 | 10 | CRUISE |
| 2026-05-03 11:43:33 | 150 | 163 | 7504 | 26 | 10 | CRUISE |
| 2026-05-03 11:44:33 | 152 | 165 | 7504 | 26 | 10 | CRUISE |
| 2026-05-03 11:45:34 | 152 | 165 | 7506 | 27 | 10 | CRUISE |
| 2026-05-03 11:46:34 | 150 | 164 | 7504 | 28 | 10 | CRUISE |
| 2026-05-03 11:47:34 | 150 | 164 | 7501 | 28 | 10 | CRUISE |
| 2026-05-03 11:48:34 | 152 | 165 | 7495 | 29 | 10 | CRUISE |
| 2026-05-03 11:49:34 | 150 | 163 | 7504 | 30 | 10 | CRUISE |
| 2026-05-03 11:50:34 | 150 | 163 | 7498 | 30 | 10 | CRUISE |
| 2026-05-03 11:51:34 | 148 | 161 | 7496 | 31 | 10 | CRUISE |
| 2026-05-03 11:52:35 | 150 | 163 | 7450 | 31 | 10 | CRUISE |
| 2026-05-03 11:53:35 | 158 | 170 | 7033 | 32 | 11 | DESCEND |
| 2026-05-03 11:54:35 | 159 | 167 | 6354 | 32 | 12 | DESCEND |
| 2026-05-03 11:55:35 | 156 | 163 | 5643 | 33 | 13 | DESCEND |
| 2026-05-03 11:56:35 | 160 | 167 | 4893 | 33 | 14 | DESCEND |
| 2026-05-03 11:57:35 | 157 | 162 | 4003 | 34 | 16 | DESCEND |
| 2026-05-03 11:58:35 | 141 | 148 | 3509 | 34 | 17 | DESCEND |
| 2026-05-03 11:59:35 | 100 | 103 | 3465 | 35 | 17 | DESCEND |
| 2026-05-03 12:00:36 | 94 | 91 | 3113 | 35 | 18 | DESCEND |
| 2026-05-03 12:01:36 | 83 | 90 | 2848 | 35 | 19 | DESCEND |
| 2026-05-03 12:02:36 | 0 | 7 | 2570 | 36 | 20 | DESCEND |
| 2026-05-03 12:03:36 | 3 | 8 | 2573 | 36 | 21 | TAXI TO THE GATE |
| 2026-05-03 12:04:36 | 7 | 7 | 2568 | 36 | 21 | TAXI TO THE GATE |
| 2026-05-03 12:05:36 | 0 | 0 | 2566 | 36 | 21 | TAXI TO THE GATE |